KCBF/CBF METAR and TAF weather

Enter ICAO airport designator
Station Type Date Time Source
KCBF METAR 2018/10/21 04:35 UTC NOAA

KCBF 210435Z AUTO 13005KT 10SM CLR 02/M05 A3037 RMK AO2


Station Type Date Time Source
KCBF Decoded METAR 2018/10/21 04:35 UTC NOAA

Council Bluffs, IA, United States (KCBF) 41-16N 095-46W
Oct 21, 2018 - 12:35 AM EDT / 2018.10.21 0435 UTC
Wind: from the SE (130 degrees) at 6 MPH (5 KT):0
Visibility: 10 mile(s):0
Sky conditions: clear
Temperature: 35 F (2 C)
Windchill: 30 F (-1 C):1
Dew Point: 23 F (-5 C)
Relative Humidity: 59%
Pressure (altimeter): 30.37 in. Hg (1028 hPa)
ob: KCBF 210435Z AUTO 13005KT 10SM CLR 02/M05 A3037 RMK AO2
cycle: 4

Station Type Date Time Source
KCBF TAF UTC NOAA

Error!


Example: see airport list